Time;durP1;ratioP1;P1;durP2;ratioP2;P2;SDS_P1;SDS_P2;PMS_P1;PMS_P2;Temp;Humidity;BMP_temperature;BMP_pressure;BME280_temperature;BME280_humidity;BME280_pressure;Samples;Min_cycle;Max_cycle;Signal;HPM_P1;HPM_P2
2022/10/07 00:01:06;;;;;;;12.38;6.10;;;;;;;7.69;97.13;102758.41;6180861;23;20016;-89
2022/10/07 00:03:31;;;;;;;12.50;6.03;;;;;;;7.67;97.45;102754.03;6179244;23;20005;-88
2022/10/07 00:06:00;;;;;;;13.38;5.80;;;;;;;7.70;97.20;102767.88;6179001;23;20007;-88
2022/10/07 00:08:26;;;;;;;14.93;6.45;;;;;;;7.67;97.15;102760.06;6180330;23;20001;-88
2022/10/07 00:10:51;;;;;;;13.68;5.93;;;;;;;7.66;97.30;102766.06;6180442;23;20008;-89
2022/10/07 00:13:17;;;;;;;16.95;5.80;;;;;;;7.65;97.36;102755.72;6180971;23;20012;-89
2022/10/07 00:15:42;;;;;;;17.35;6.07;;;;;;;7.63;97.28;102753.13;6177556;23;20004;-89
2022/10/07 00:18:07;;;;;;;14.68;6.20;;;;;;;7.62;97.48;102758.25;6179427;23;20008;-89
2022/10/07 00:20:38;;;;;;;13.50;6.03;;;;;;;7.60;98.19;102753.06;6180843;23;20076;-89
2022/10/07 00:23:03;;;;;;;13.48;5.93;;;;;;;7.59;97.83;102761.63;6180374;23;20005;-88
2022/10/07 00:25:29;;;;;;;13.95;5.80;;;;;;;7.50;98.25;102735.66;6178476;23;20343;-89
2022/10/07 00:27:54;;;;;;;13.38;5.90;;;;;;;7.55;98.36;102744.38;6180649;23;20001;-89
2022/10/07 00:30:20;;;;;;;12.35;5.90;;;;;;;7.49;98.24;102741.66;6180212;23;20038;-89
2022/10/07 00:32:45;;;;;;;17.27;6.32;;;;;;;7.52;98.29;102745.16;6179263;23;20427;-89
2022/10/07 00:35:10;;;;;;;15.20;6.00;;;;;;;7.54;98.52;102740.91;6178994;23;20020;-89
2022/10/07 00:37:41;;;;;;;15.30;6.35;;;;;;;7.51;98.47;102733.09;6180115;23;20005;-89
2022/10/07 00:40:11;;;;;;;12.65;6.38;;;;;;;7.48;98.50;102732.19;6180199;23;20335;-89
2022/10/07 00:42:37;;;;;;;13.70;6.22;;;;;;;7.47;98.63;102730.44;6178816;23;20016;-89
2022/10/07 00:45:03;;;;;;;12.95;6.05;;;;;;;7.35;98.58;102704.41;6180264;23;20024;-89
2022/10/07 00:47:33;;;;;;;13.80;5.90;;;;;;;7.46;98.74;102726.13;6180539;23;20051;-89
2022/10/07 00:50:05;;;;;;;13.82;6.38;;;;;;;7.43;98.69;102719.19;6180243;23;20043;-89
2022/10/07 00:52:45;;;;;;;13.00;5.75;;;;;;;7.39;98.98;102719.09;6178646;23;20032;-89
2022/10/07 00:55:15;;;;;;;14.57;6.07;;;;;;;7.25;98.77;102693.03;6179166;23;20343;-89
2022/10/07 00:57:41;;;;;;;11.40;5.82;;;;;;;7.35;98.71;102710.44;6178736;23;20093;-89
2022/10/07 01:00:08;;;;;;;10.60;6.15;;;;;;;7.36;98.66;102714.75;6179030;23;20078;-89
2022/10/07 01:02:36;;;;;;;14.70;6.80;;;;;;;7.33;98.56;102712.09;6179838;23;20009;-89
2022/10/07 01:05:07;;;;;;;18.45;7.20;;;;;;;7.28;98.96;102702.56;6180347;23;20005;-89
2022/10/07 01:07:33;;;;;;;15.60;6.53;;;;;;;7.30;98.67;102706.88;6180555;23;20461;-89
2022/10/07 01:09:59;;;;;;;13.57;6.47;;;;;;;7.29;98.66;102699.13;6177136;23;20000;-89
2022/10/07 01:12:36;;;;;;;14.35;6.70;;;;;;;7.31;98.58;102702.59;6177913;23;20008;-89
2022/10/07 01:15:43;;;;;;;11.65;5.88;;;;;;;7.31;98.69;102703.47;6178006;23;20066;-89
2022/10/07 01:18:47;;;;;;;19.80;7.90;;;;;;;7.31;98.22;102694.84;6178033;23;20017;-89
2022/10/07 01:21:30;;;;;;;19.55;8.63;;;;;;;7.23;99.00;102683.53;6165892;23;20016;-89
2022/10/07 01:24:15;;;;;;;15.77;7.65;;;;;;;7.28;98.75;102692.22;6179584;23;20076;-89
2022/10/07 01:27:02;;;;;;;17.30;7.40;;;;;;;7.26;98.85;102683.59;6177157;23;20017;-89
2022/10/07 01:29:52;;;;;;;14.98;6.35;;;;;;;7.24;98.85;102683.53;6178706;23;20032;-89
2022/10/07 01:32:25;;;;;;;14.57;6.53;;;;;;;7.23;98.82;102673.22;6180133;23;20001;-90
2022/10/07 01:34:54;;;;;;;17.60;5.93;;;;;;;7.19;98.97;102674.00;6178345;23;20037;-89
2022/10/07 01:37:22;;;;;;;15.73;6.28;;;;;;;7.18;98.91;102665.38;6178176;23;20084;-89
2022/10/07 01:39:52;;;;;;;13.68;5.68;;;;;;;7.18;99.10;102661.94;6178767;23;20068;-89
2022/10/07 01:42:20;;;;;;;17.60;5.97;;;;;;;7.08;99.40;102646.31;6178374;23;20047;-89
2022/10/07 01:44:51;;;;;;;14.35;5.80;;;;;;;7.17;99.58;102652.44;6180713;23;20007;-90
2022/10/07 01:47:17;;;;;;;12.25;5.70;;;;;;;7.19;99.78;102650.78;6178232;23;20490;-89
2022/10/07 01:49:42;;;;;;;21.50;6.28;;;;;;;7.18;99.78;102644.75;6180103;23;20001;-89
2022/10/07 01:52:42;;;;;;;14.10;5.78;;;;;;;7.11;99.77;102636.03;6179400;23;20001;-89
2022/10/07 01:55:16;;;;;;;13.50;5.80;;;;;;;7.14;98.96;102637.81;6180565;23;20001;-89
2022/10/07 01:57:56;;;;;;;11.02;5.57;;;;;;;7.08;99.70;102620.50;6178938;23;20048;-89
2022/10/07 02:00:22;;;;;;;11.48;5.00;;;;;;;7.12;99.61;102626.59;6180721;23;20011;-89
2022/10/07 02:02:56;;;;;;;13.65;5.60;;;;;;;7.11;100.00;102623.13;6179720;23;20008;-89
2022/10/07 02:05:40;;;;;;;11.52;5.78;;;;;;;7.10;100.00;102623.97;6178395;23;20439;-89
2022/10/07 02:08:15;;;;;;;13.10;5.40;;;;;;;7.09;99.94;102622.25;6178065;23;20013;-89
2022/10/07 02:11:28;;;;;;;14.98;5.47;;;;;;;7.10;100.00;102620.53;6178097;23;20040;-89
2022/10/07 02:14:22;;;;;;;17.17;6.32;;;;;;;7.11;99.90;102619.69;6128960;23;20329;-90
2022/10/07 02:16:55;;;;;;;17.27;6.00;;;;;;;7.05;100.00;102612.72;6179302;23;20059;-89
2022/10/07 02:19:24;;;;;;;14.68;5.95;;;;;;;7.08;100.00;102619.66;6179121;23;20013;-90
2022/10/07 02:21:52;;;;;;;13.00;6.20;;;;;;;7.04;100.00;102605.81;6181279;23;20013;-90
2022/10/07 02:24:22;;;;;;;15.57;6.07;;;;;;;7.08;100.00;102612.78;6181670;23;20327;-90
2022/10/07 02:26:50;;;;;;;14.90;5.70;;;;;;;7.05;100.00;102602.41;6181343;23;20446;-90
2022/10/07 02:29:19;;;;;;;15.43;5.78;;;;;;;7.04;100.00;102603.22;6183028;23;20001;-89
2022/10/07 02:31:47;;;;;;;17.13;5.88;;;;;;;7.05;100.00;102599.81;6181292;23;20435;-89
2022/10/07 02:34:17;;;;;;;10.90;5.95;;;;;;;7.04;100.00;102600.66;6181966;23;20001;-89
2022/10/07 02:36:49;;;;;;;12.65;5.60;;;;;;;7.01;100.00;102597.16;6182667;23;20097;-89
2022/10/07 02:39:15;;;;;;;13.80;6.18;;;;;;;7.01;100.00;102587.72;6182324;23;20009;-89
2022/10/07 02:41:50;;;;;;;13.55;5.63;;;;;;;6.90;100.00;102573.75;6180027;23;20019;-89
2022/10/07 02:44:24;;;;;;;12.50;6.00;;;;;;;6.98;100.00;102585.06;6181636;23;20036;-89
2022/10/07 02:47:16;;;;;;;12.80;6.00;;;;;;;6.95;100.00;102577.28;6182708;23;20505;-90
2022/10/07 02:49:47;;;;;;;18.10;6.05;;;;;;;6.95;100.00;102579.00;6179785;23;20005;-89
2022/10/07 02:52:15;;;;;;;12.95;5.93;;;;;;;6.93;100.00;102575.50;6180662;23;20485;-89
2022/10/07 02:54:50;;;;;;;17.00;6.30;;;;;;;6.92;100.00;102579.81;6180688;23;20008;-88
2022/10/07 02:57:18;;;;;;;13.45;6.13;;;;;;;6.90;100.00;102575.44;6182257;23;20005;-89
2022/10/07 02:59:47;;;;;;;11.82;6.03;;;;;;;6.85;100.00;102566.75;6182648;23;20012;-88
2022/10/07 03:02:24;;;;;;;13.18;5.90;;;;;;;6.87;100.00;102565.97;6182694;23;20493;-89
2022/10/07 03:04:49;;;;;;;13.88;5.97;;;;;;;6.90;100.00;102568.59;6182070;23;20451;-88
2022/10/07 03:07:15;;;;;;;14.45;6.32;;;;;;;6.89;100.00;102561.69;6182328;23;20016;-88
2022/10/07 03:09:42;;;;;;;14.63;5.57;;;;;;;6.87;100.00;102559.94;6182755;23;20035;-88
2022/10/07 03:12:07;;;;;;;13.48;6.15;;;;;;;6.84;100.00;102555.56;6182540;23;20500;-88
2022/10/07 03:14:34;;;;;;;17.02;5.93;;;;;;;6.80;100.00;102546.06;6181661;23;20067;-88
2022/10/07 03:17:00;;;;;;;15.68;6.05;;;;;;;6.81;100.00;102550.38;6182628;23;20052;-89
2022/10/07 03:19:25;;;;;;;15.13;6.18;;;;;;;6.80;100.00;102556.38;6180683;23;20005;-90
2022/10/07 03:21:52;;;;;;;16.85;6.30;;;;;;;6.81;100.00;102552.09;6182410;23;20001;-90
2022/10/07 03:24:17;;;;;;;14.38;6.22;;;;;;;6.78;100.00;102545.16;6181800;23;20013;-89
2022/10/07 03:26:43;;;;;;;10.88;6.03;;;;;;;6.75;100.00;102539.97;6182512;23;20085;-89
2022/10/07 03:29:09;;;;;;;16.35;6.05;;;;;;;6.75;100.00;102539.97;6181863;23;20016;-89
2022/10/07 03:31:35;;;;;;;17.75;5.95;;;;;;;6.75;100.00;102540.81;6182411;23;20005;-89
2022/10/07 03:34:00;;;;;;;15.88;5.90;;;;;;;6.72;100.00;102532.16;6181600;23;20016;-89
2022/10/07 03:36:26;;;;;;;18.92;6.38;;;;;;;6.73;100.00;102531.31;6181992;23;20044;-89
2022/10/07 03:38:51;;;;;;;13.65;6.28;;;;;;;6.73;100.00;102536.47;6180801;23;20009;-89
2022/10/07 03:41:18;;;;;;;14.18;6.03;;;;;;;6.72;100.00;102533.03;6182505;23;20008;-90
2022/10/07 03:43:43;;;;;;;16.58;5.90;;;;;;;6.69;100.00;102535.53;6181859;23;20012;-89
2022/10/07 03:46:09;;;;;;;13.38;5.85;;;;;;;6.67;100.00;102519.19;6182368;23;20038;-89
2022/10/07 03:48:34;;;;;;;11.85;5.88;;;;;;;6.61;100.00;102508.78;6180279;23;20003;-89
2022/10/07 03:51:00;;;;;;;16.52;6.60;;;;;;;6.63;100.00;102516.50;6180964;23;20000;-90
2022/10/07 03:53:28;;;;;;;13.55;6.18;;;;;;;6.68;100.00;102526.09;6181790;23;19997;-89
2022/10/07 03:55:54;;;;;;;16.25;6.40;;;;;;;6.64;100.00;102520.81;6182105;23;19997;-89
2022/10/07 03:58:20;;;;;;;15.95;5.95;;;;;;;6.58;100.00;102505.25;6181557;23;20008;-89
2022/10/07 04:00:46;;;;;;;13.20;5.97;;;;;;;6.64;100.00;102513.97;6181354;23;20012;-89
2022/10/07 04:03:13;;;;;;;12.77;6.10;;;;;;;6.60;100.00;102509.63;6181321;23;20128;-89
2022/10/07 04:05:39;;;;;;;17.27;6.55;;;;;;;6.56;100.00;102504.34;6180213;23;20001;-90
2022/10/07 04:08:05;;;;;;;12.93;5.88;;;;;;;6.59;100.00;102504.41;6179715;23;20009;-89
2022/10/07 04:10:31;;;;;;;14.20;6.20;;;;;;;6.64;100.00;102520.81;6182473;23;20009;-89
2022/10/07 04:12:56;;;;;;;18.08;5.80;;;;;;;6.65;100.00;102520.88;6178858;23;20091;-88
2022/10/07 04:15:22;;;;;;;14.32;6.30;;;;;;;6.65;100.00;102526.03;6178636;23;20001;-89
2022/10/07 04:17:48;;;;;;;13.98;5.95;;;;;;;6.64;100.00;102518.25;6179398;23;20112;-89
2022/10/07 04:20:15;;;;;;;12.52;5.70;;;;;;;6.64;100.00;102513.09;6178340;23;20001;-89
2022/10/07 04:22:41;;;;;;;16.55;6.25;;;;;;;6.64;100.00;102515.69;6180405;23;20370;-89
2022/10/07 04:27:55;;;;;;;11.88;5.57;;;;;;;6.59;100.00;102507.88;6181597;23;20394;-89
2022/10/07 04:30:23;;;;;;;16.10;5.97;;;;;;;6.61;100.00;102516.50;6179915;23;20087;-89
2022/10/07 04:32:49;;;;;;;16.33;5.93;;;;;;;6.58;100.00;102511.28;6180486;23;20005;-89
2022/10/07 04:35:19;;;;;;;15.10;6.03;;;;;;;6.59;100.00;102517.31;6179669;23;20091;-89
2022/10/07 04:37:52;;;;;;;17.50;6.50;;;;;;;6.59;100.00;102502.72;6181275;23;20371;-88
2022/10/07 04:40:18;;;;;;;16.30;5.93;;;;;;;6.56;100.00;102507.78;6179333;23;19999;-90
2022/10/07 04:45:30;;;;;;;;;;;;;;;6.59;100.00;102512.16;6180487;23;20415;-89
2022/10/07 04:47:55;;;;;;;14.18;5.20;;;;;;;6.52;100.00;102500.00;6180480;23;19979;-89
2022/10/07 04:50:20;;;;;;;17.27;6.17;;;;;;;6.56;100.00;102507.78;6180035;23;20043;-88
2022/10/07 04:52:46;;;;;;;11.97;5.80;;;;;;;6.58;100.00;102508.72;6180613;23;20697;-88
2022/10/07 04:55:13;;;;;;;14.85;5.57;;;;;;;6.60;100.00;102511.31;6181341;23;20232;-88
2022/10/07 04:57:39;;;;;;;13.30;5.15;;;;;;;6.56;100.00;102501.78;6180797;23;20012;-88
2022/10/07 05:00:05;;;;;;;14.82;5.10;;;;;;;6.56;100.00;102502.63;6180033;23;20047;-88
2022/10/07 05:02:31;;;;;;;16.58;5.95;;;;;;;6.50;100.00;102486.19;6179541;23;20059;-88
2022/10/07 05:04:56;;;;;;;15.35;5.50;;;;;;;6.55;100.00;102497.50;6178367;23;20028;-88
2022/10/07 05:07:22;;;;;;;12.40;5.13;;;;;;;6.53;100.00;102491.44;6181115;23;20536;-89
2022/10/07 05:09:47;;;;;;;14.73;5.10;;;;;;;6.52;100.00;102489.69;6178905;23;20015;-89
2022/10/07 05:12:12;;;;;;;15.30;5.40;;;;;;;6.54;100.00;102493.16;6179609;23;20080;-88
2022/10/07 05:14:40;;;;;;;13.18;5.40;;;;;;;6.52;100.00;102490.56;6180041;23;20080;-88
2022/10/07 05:17:05;;;;;;;14.27;5.15;;;;;;;6.42;100.00;102478.31;6179563;23;20008;-88
2022/10/07 05:19:31;;;;;;;15.98;5.40;;;;;;;6.50;100.00;102496.50;6179599;23;20001;-90
2022/10/07 05:21:56;;;;;;;12.32;5.15;;;;;;;6.46;100.00;102480.13;6177530;23;20435;-89
2022/10/07 05:24:22;;;;;;;11.23;4.90;;;;;;;6.43;100.00;102471.47;6178074;23;20118;-89
2022/10/07 05:26:47;;;;;;;15.05;5.10;;;;;;;6.40;100.00;102456.84;6178290;23;20033;-90
2022/10/07 05:29:12;;;;;;;12.43;4.55;;;;;;;6.41;100.00;102455.13;6203659;23;20320;-89
2022/10/07 05:31:38;;;;;;;12.52;5.00;;;;;;;6.47;100.00;102466.44;6178785;23;20005;-90
2022/10/07 05:34:03;;;;;;;12.13;4.63;;;;;;;6.49;100.00;102474.16;6178493;23;20462;-89
2022/10/07 05:36:29;;;;;;;11.02;4.70;;;;;;;6.43;100.00;102467.19;6179726;23;20047;-88
2022/10/07 05:38:56;;;;;;;13.73;4.63;;;;;;;6.47;100.00;102470.69;6181000;23;20005;-90
2022/10/07 05:41:22;;;;;;;11.30;4.70;;;;;;;6.49;100.00;102469.00;6178039;23;20027;-89
2022/10/07 05:43:48;;;;;;;10.73;4.70;;;;;;;6.46;100.00;102468.97;6178193;23;20032;-89
2022/10/07 05:46:16;;;;;;;12.65;5.00;;;;;;;6.45;100.00;102475.81;6179648;23;20004;-89
2022/10/07 05:48:45;;;;;;;10.18;4.32;;;;;;;6.42;100.00;102467.16;6179611;23;20019;-89
2022/10/07 05:51:12;;;;;;;12.55;4.45;;;;;;;6.42;100.00;102472.31;6178946;23;20001;-88
2022/10/07 05:53:40;;;;;;;14.38;4.55;;;;;;;6.38;100.00;102468.81;6178927;23;20060;-89
2022/10/07 05:56:07;;;;;;;11.70;4.70;;;;;;;6.38;100.00;102468.81;6179727;23;20362;-89
2022/10/07 05:58:34;;;;;;;11.90;4.28;;;;;;;6.39;100.00;102467.97;6182241;23;20008;-88
2022/10/07 06:01:01;;;;;;;11.77;4.45;;;;;;;6.36;100.00;102452.44;6181884;23;20012;-89
2022/10/07 06:03:27;;;;;;;14.75;4.63;;;;;;;6.34;100.00;102452.44;6180776;23;20009;-89
2022/10/07 06:05:53;;;;;;;11.40;4.55;;;;;;;6.35;100.00;102449.00;6182126;23;20012;-89
2022/10/07 06:08:20;;;;;;;11.05;4.20;;;;;;;6.38;100.00;102449.91;6180643;23;20135;-89
2022/10/07 06:13:34;;;;;;;14.95;4.88;;;;;;;6.42;100.00;102455.13;6179043;23;20016;-90
2022/10/07 06:16:08;;;;;;;10.65;4.25;;;;;;;6.40;100.00;102446.53;6182247;23;20079;-89
2022/10/07 06:18:37;;;;;;;10.48;4.35;;;;;;;6.38;100.00;102440.47;6181712;23;20071;-89
2022/10/07 06:21:03;;;;;;;9.52;4.35;;;;;;;6.41;100.00;102443.13;6179026;23;20113;-89
2022/10/07 06:23:29;;;;;;;12.85;4.70;;;;;;;6.45;100.00;102446.63;6181511;23;20001;-89
2022/10/07 06:26:00;;;;;;;14.07;4.90;;;;;;;6.47;100.00;102455.25;6182021;23;20501;-89
2022/10/07 06:28:31;;;;;;;14.10;4.53;;;;;;;6.50;100.00;102452.72;6182543;23;20020;-88
2022/10/07 06:30:56;;;;;;;13.27;4.50;;;;;;;6.49;100.00;102440.66;6180296;23;20005;-89
2022/10/07 06:33:22;;;;;;;12.10;4.78;;;;;;;6.54;100.00;102451.94;6179146;23;20005;-89
2022/10/07 06:35:47;;;;;;;13.60;4.50;;;;;;;6.49;100.00;102438.09;6182572;23;20016;-89
2022/10/07 06:38:16;;;;;;;12.90;4.45;;;;;;;6.58;100.00;102443.44;6182753;23;20051;-90
2022/10/07 06:40:41;;;;;;;15.45;4.78;;;;;;;6.61;100.00;102449.53;6181516;23;20080;-89
2022/10/07 06:43:08;;;;;;;14.50;5.22;;;;;;;6.60;100.00;102440.06;6182130;23;20079;-89
2022/10/07 06:45:33;;;;;;;18.02;5.00;;;;;;;6.62;100.00;102445.22;6180914;23;20001;-89
2022/10/07 06:47:59;;;;;;;16.55;5.05;;;;;;;6.65;100.00;102446.16;6180889;23;20011;-89
2022/10/07 06:50:25;;;;;;;12.20;5.15;;;;;;;6.69;100.00;102450.50;6179087;23;20001;-88
2022/10/07 06:52:50;;;;;;;15.82;4.90;;;;;;;6.73;100.00;102444.59;6179761;23;20001;-89
2022/10/07 06:55:16;;;;;;;12.75;4.93;;;;;;;6.75;100.00;102442.03;6182518;23;20080;-89
2022/10/07 06:57:42;;;;;;;11.07;4.80;;;;;;;6.85;100.00;102443.03;6182985;23;20036;-89
2022/10/07 07:00:07;;;;;;;12.65;4.85;;;;;;;6.87;100.00;102442.25;6182412;23;20757;-88
2022/10/07 07:02:33;;;;;;;20.52;4.68;;;;;;;6.95;100.00;102450.13;6180767;23;20013;-89
2022/10/07 07:04:58;;;;;;;11.95;4.78;;;;;;;7.01;100.00;102453.66;6181242;23;20008;-88
2022/10/07 07:07:23;;;;;;;21.63;5.38;;;;;;;7.09;100.00;102452.09;6180749;23;20006;-88
2022/10/07 07:09:50;;;;;;;15.95;5.00;;;;;;;7.16;100.00;102454.75;6181851;23;20001;-89
2022/10/07 07:12:15;;;;;;;15.35;4.90;;;;;;;7.22;100.00;102449.69;6179299;23;20561;-88
2022/10/07 07:14:43;;;;;;;13.55;5.07;;;;;;;7.31;100.00;102444.66;6181220;23;20028;-89
2022/10/07 07:17:08;;;;;;;14.73;4.70;;;;;;;7.34;100.00;102445.59;6179777;23;20004;-89
2022/10/07 07:19:34;;;;;;;11.23;4.68;;;;;;;7.42;100.00;102453.44;6181425;23;20005;-89
2022/10/07 07:21:59;;;;;;;15.90;5.03;;;;;;;7.47;100.00;102444.06;6179714;23;20009;-89
2022/10/07 07:24:24;;;;;;;15.23;5.17;;;;;;;7.54;100.00;102454.50;6180267;23;20392;-89
2022/10/07 07:26:50;;;;;;;18.00;5.35;;;;;;;7.65;100.00;102456.34;6181488;23;20236;-89
2022/10/07 07:29:15;;;;;;;17.73;5.80;;;;;;;7.67;100.00;102445.22;6182143;23;20009;-89
2022/10/07 07:31:41;;;;;;;16.25;5.88;;;;;;;7.78;100.00;102458.28;6181910;23;20347;-89
2022/10/07 07:34:13;;;;;;;16.55;6.07;;;;;;;7.85;100.00;102452.31;6183012;23;20028;-89
2022/10/07 07:36:43;;;;;;;16.45;5.47;;;;;;;7.95;100.00;102454.19;6181501;23;20013;-89
2022/10/07 07:39:10;;;;;;;17.27;5.55;;;;;;;8.03;100.00;102455.16;6182189;23;20574;-89
2022/10/07 07:41:41;;;;;;;16.17;4.97;;;;;;;8.02;100.00;102437.94;6182005;23;20008;-89
2022/10/07 07:44:10;;;;;;;16.80;5.38;;;;;;;8.12;100.00;102437.19;6180239;23;20005;-89
2022/10/07 07:46:38;;;;;;;17.08;5.90;;;;;;;8.24;100.00;102444.22;6181596;23;20051;-89
2022/10/07 07:49:04;;;;;;;19.98;6.72;;;;;;;8.29;100.00;102446.00;6181884;23;20001;-88
2022/10/07 07:51:31;;;;;;;15.75;6.00;;;;;;;8.35;100.00;102441.78;6180331;23;20001;-89
2022/10/07 07:53:58;;;;;;;18.02;5.85;;;;;;;8.43;100.00;102442.75;6182151;23;20005;-88
2022/10/07 07:56:24;;;;;;;21.50;7.53;;;;;;;8.52;100.00;102435.97;6181867;23;20004;-89
2022/10/07 07:58:50;;;;;;;15.75;5.70;;;;;;;8.60;100.00;102438.59;6180262;23;20424;-91
2022/10/07 08:01:17;;;;;;;21.40;5.82;;;;;;;8.64;100.00;102436.06;6181219;23;20749;-89
2022/10/07 08:03:45;;;;;;;15.20;5.55;;;;;;;8.71;100.00;102437.88;6180114;23;20473;-90
2022/10/07 08:06:12;;;;;;;16.25;5.85;;;;;;;8.82;100.00;102442.25;6182149;23;20539;-89
2022/10/07 08:08:41;;;;;;;20.65;5.55;;;;;;;8.89;100.00;102431.13;6182846;23;20443;-89
2022/10/07 08:11:08;;;;;;;16.48;5.65;;;;;;;9.05;100.00;102430.41;6181745;23;20316;-90
2022/10/07 08:13:34;;;;;;;14.15;5.03;;;;;;;9.17;100.00;102425.31;6178438;23;20011;-90
2022/10/07 08:16:03;;;;;;;16.80;5.45;;;;;;;9.34;100.00;102423.75;6179272;23;20107;-89
2022/10/07 08:18:32;;;;;;;19.95;5.47;;;;;;;9.52;100.00;102418.66;6180920;23;20004;-89
2022/10/07 08:20:59;;;;;;;18.63;5.15;;;;;;;9.64;100.00;102419.56;6179650;23;20071;-89
2022/10/07 08:23:25;;;;;;;16.73;5.30;;;;;;;9.80;100.00;102427.44;6179785;23;20497;-90
2022/10/07 08:25:58;;;;;;;15.70;4.80;;;;;;;9.95;100.00;102424.06;6181061;23;20044;-89
2022/10/07 08:28:26;;;;;;;14.30;5.05;;;;;;;10.10;100.00;102415.50;6178842;23;20445;-88
2022/10/07 08:30:52;;;;;;;13.98;4.63;;;;;;;10.22;100.00;102416.44;6179412;23;20659;-89
2022/10/07 08:33:18;;;;;;;18.70;4.70;;;;;;;10.38;100.00;102414.72;6179296;23;20024;-89
2022/10/07 08:35:56;;;;;;;17.05;5.00;;;;;;;10.66;100.00;102413.03;6179192;23;20013;-89
2022/10/07 08:38:22;;;;;;;14.20;4.45;;;;;;;10.95;100.00;102407.88;6179247;23;20009;-89
2022/10/07 08:40:49;;;;;;;18.02;4.20;;;;;;;11.27;98.60;102419.09;6180998;23;20084;-89
2022/10/07 08:43:17;;;;;;;16.48;4.22;;;;;;;11.43;95.22;102412.16;6180491;23;20427;-89
2022/10/07 08:45:44;;;;;;;18.92;4.05;;;;;;;11.57;94.17;102406.91;6180923;23;20076;-89
2022/10/07 08:48:19;;;;;;;18.75;3.72;;;;;;;11.62;95.00;102411.22;6154591;23;20112;-89
2022/10/07 08:50:56;;;;;;;13.80;3.50;;;;;;;11.75;94.12;102412.94;6179406;23;20028;-89
2022/10/07 08:53:35;;;;;;;13.45;3.60;;;;;;;11.79;94.23;102400.84;6180805;23;20081;-89
2022/10/07 08:56:10;;;;;;;17.90;3.92;;;;;;;11.90;91.23;102405.97;6180367;23;20091;-90
2022/10/07 08:58:54;;;;;;;19.30;3.60;;;;;;;11.91;91.92;102402.50;6179097;23;20068;-90
2022/10/07 09:01:35;;;;;;;10.90;3.70;;;;;;;11.97;91.47;102397.28;6180590;23;20005;-90
2022/10/07 09:04:28;;;;;;;15.02;3.65;;;;;;;12.05;92.00;102387.72;6179091;23;20005;-90
2022/10/07 09:06:57;;;;;;;10.30;3.25;;;;;;;12.15;89.55;102389.38;6179738;23;20390;-90
2022/10/07 09:09:29;;;;;;;15.68;3.65;;;;;;;12.20;90.03;102380.72;6178928;23;20079;-90
2022/10/07 09:11:56;;;;;;;12.93;3.80;;;;;;;12.26;91.10;102378.06;6180445;23;20001;-90
2022/10/07 09:14:36;;;;;;;11.82;3.53;;;;;;;12.28;91.18;102368.50;6179864;23;20360;-90
2022/10/07 09:17:12;;;;;;;13.85;3.70;;;;;;;12.33;89.17;102370.22;6180242;23;20016;-90
2022/10/07 09:19:43;;;;;;;12.98;2.97;;;;;;;12.43;90.11;102367.53;6180869;23;20024;-90
2022/10/07 09:22:18;;;;;;;17.80;3.30;;;;;;;12.45;87.17;102350.19;6180899;23;20001;-90
2022/10/07 09:24:46;;;;;;;13.77;3.85;;;;;;;12.59;88.06;102363.09;6180829;23;20001;-91
2022/10/07 09:27:14;;;;;;;11.85;3.05;;;;;;;12.62;86.01;102360.50;6180518;23;20396;-90
2022/10/07 09:29:40;;;;;;;14.25;3.00;;;;;;;12.70;86.92;102363.00;6178227;23;20008;-89
2022/10/07 09:32:10;;;;;;;13.40;3.45;;;;;;;12.75;86.89;102362.13;6178759;23;20052;-89
2022/10/07 09:34:35;;;;;;;12.15;2.75;;;;;;;12.83;84.66;102365.50;6180416;23;20077;-89
2022/10/07 09:37:21;;;;;;;16.02;3.25;;;;;;;12.95;86.17;102361.94;6180733;23;20044;-89
2022/10/07 09:39:49;;;;;;;14.82;3.17;;;;;;;13.04;84.69;102360.09;6178925;23;20080;-88
2022/10/07 09:42:35;;;;;;;10.77;3.30;;;;;;;13.19;85.13;102355.66;6180116;23;20001;-89
2022/10/07 09:45:18;;;;;;;14.18;3.45;;;;;;;13.22;84.02;102351.28;6178200;23;20104;-89
2022/10/07 09:47:48;;;;;;;12.48;2.92;;;;;;;13.31;82.88;102343.34;6178667;23;20084;-89
2022/10/07 09:50:37;;;;;;;19.35;3.15;;;;;;;13.46;84.02;102347.53;6180422;23;20001;-89
2022/10/07 09:53:05;;;;;;;16.02;3.47;;;;;;;13.61;82.82;102338.69;6179022;23;20001;-89
2022/10/07 09:55:39;;;;;;;15.73;3.15;;;;;;;13.71;81.86;102338.56;6178541;23;20443;-90
2022/10/07 09:58:15;;;;;;;12.77;3.17;;;;;;;13.78;82.86;102334.13;6180501;23;20005;-89
2022/10/07 10:00:46;;;;;;;12.85;3.28;;;;;;;13.81;83.31;102334.06;6180516;23;20008;-90
2022/10/07 10:03:12;;;;;;;12.25;3.17;;;;;;;13.95;82.17;102326.94;6181032;23;20032;-90
2022/10/07 10:05:50;;;;;;;13.57;3.55;;;;;;;14.11;83.63;102328.44;6178575;23;20363;-90
2022/10/07 10:08:20;;;;;;;14.30;3.28;;;;;;;14.28;80.92;102322.09;6178510;23;20067;-90
2022/10/07 10:11:02;;;;;;;14.50;2.97;;;;;;;14.43;78.87;102332.34;6177845;23;20000;-91
2022/10/07 10:13:33;;;;;;;13.52;2.83;;;;;;;14.57;79.93;102323.41;6178683;23;20043;-90
2022/10/07 10:16:00;;;;;;;13.10;3.00;;;;;;;14.64;80.87;102303.28;6180440;23;20024;-90
2022/10/07 10:18:40;;;;;;;14.73;3.22;;;;;;;14.76;77.44;102315.25;6178184;23;20001;-91
2022/10/07 10:21:18;;;;;;;8.85;2.63;;;;;;;14.76;75.65;102297.84;6179818;23;20004;-90
2022/10/07 10:24:00;;;;;;;12.27;2.65;;;;;;;14.93;77.36;102305.41;6178010;23;20037;-89
2022/10/07 10:26:54;;;;;;;9.90;2.63;;;;;;;15.05;77.06;102301.69;6180630;23;20350;-91
2022/10/07 10:29:54;;;;;;;14.23;2.60;;;;;;;15.12;76.75;102300.69;6178529;23;20013;-90
2022/10/07 10:32:56;;;;;;;11.30;2.50;;;;;;;15.16;75.62;102300.59;6178760;23;20008;-90
2022/10/07 10:35:26;;;;;;;11.07;2.53;;;;;;;15.22;71.64;102294.38;6180047;23;20036;-90
2022/10/07 10:38:16;;;;;;;10.73;2.58;;;;;;;15.29;74.65;102288.13;6178481;23;20331;-90
2022/10/07 10:41:19;;;;;;;9.35;2.13;;;;;;;15.33;74.01;102288.06;6180316;23;20008;-90
2022/10/07 10:44:19;;;;;;;13.27;3.03;;;;;;;15.42;74.72;102268.72;6180374;23;20323;-90
2022/10/07 10:47:04;;;;;;;10.48;2.30;;;;;;;15.50;74.59;102269.41;6182479;23;20009;-89
2022/10/07 10:49:54;;;;;;;8.77;2.10;;;;;;;15.58;73.27;102266.66;6181508;23;20032;-90
2022/10/07 10:52:22;;;;;;;13.25;2.97;;;;;;;15.64;69.50;102264.78;6182032;23;20004;-89
2022/10/07 10:55:05;;;;;;;13.07;2.40;;;;;;;15.71;70.01;102266.34;6180486;23;20199;-90
2022/10/07 10:57:45;;;;;;;12.45;2.40;;;;;;;15.76;69.08;102264.50;6180676;23;20505;-90
2022/10/07 11:00:15;;;;;;;12.63;2.40;;;;;;;15.80;69.58;102250.47;6182054;23;20044;-90
2022/10/07 11:03:02;;;;;;;8.05;2.10;;;;;;;15.78;71.16;102252.25;6182580;23;20005;-90
2022/10/07 11:05:35;;;;;;;10.88;2.33;;;;;;;15.68;71.61;102240.31;6179671;23;20064;-90
2022/10/07 11:08:06;;;;;;;13.48;2.20;;;;;;;15.72;70.52;102243.69;6181875;23;20008;-90
2022/10/07 11:10:51;;;;;;;10.05;2.20;;;;;;;15.78;68.05;102238.31;6181908;23;20065;-89
2022/10/07 11:13:26;;;;;;;12.55;2.03;;;;;;;15.82;69.29;102242.59;6182170;23;20016;-90
2022/10/07 11:16:10;;;;;;;7.30;2.10;;;;;;;15.78;71.21;102236.56;6180089;23;20001;-90
2022/10/07 11:18:44;;;;;;;11.60;2.13;;;;;;;15.77;68.64;102232.22;6180026;23;20028;-90
2022/10/07 11:21:24;;;;;;;10.98;2.35;;;;;;;15.80;70.00;102229.56;6181046;23;20131;-90
2022/10/07 11:24:02;;;;;;;11.23;2.00;;;;;;;15.91;68.63;102228.44;6181647;23;20009;-89
2022/10/07 11:26:36;;;;;;;15.43;2.22;;;;;;;15.94;67.67;102223.13;6181800;23;20008;-90
2022/10/07 11:29:31;;;;;;;10.68;2.22;;;;;;;15.99;70.45;102221.25;6179743;23;20009;-88
2022/10/07 11:32:16;;;;;;;8.45;2.28;;;;;;;15.98;70.03;102211.69;6142680;23;20064;-88
2022/10/07 11:34:56;;;;;;;8.50;2.20;;;;;;;16.05;67.50;102205.41;6179890;23;20450;-89
2022/10/07 11:37:49;;;;;;;8.00;2.00;;;;;;;16.12;66.45;102191.28;6179252;23;20263;-89
2022/10/07 11:40:15;;;;;;;9.85;1.85;;;;;;;16.19;64.02;102192.84;6179357;23;20394;-90
2022/10/07 11:42:45;;;;;;;16.67;2.50;;;;;;;16.21;64.20;102180.59;6182287;23;20032;-89
2022/10/07 11:45:17;;;;;;;11.63;2.13;;;;;;;16.24;64.91;102174.44;6181194;23;20036;-89